Главная страница
METAR-TAF:

METAR-TAF

Аэропорты :

Янгстаун / Уоррен, Огайо, США

широта: 41-15-16N, долгота: 080-40-26W, высота над уровнем моря: 364 м

Текущие метеонаблюдения

Эта сводка был подготовлена 32 минут назад, в 05:27 UTC
Ветер 4 Узел от северо-северо-восточный
Температура -6°C
Влажность 93%
Давление 1022 hPa
Видимость: 16.1 км
Рассеянная облачность на высоте 1400 фута

METAR: KYNG 100527Z 02004KT 10SM BKN014 M06/M07 A3017 RMK AO2 T10561067 $

Время: 00:59 (05:59 UTC)

Прогноз

Эта сводка был подготовлена 21 минут назад, в 05:38 UTC
Прогноз действительный с 10-го 06 UTC до 11-го 06 UTC
Ветер 5 Узел от северный
Видимость: 10 км
Сплошная облачность на высоте 1500 фута
С 10-го 1700 UTC
Ветер 4 Узел от западный
Видимость: 10 км
Сплошная облачность на высоте 2500 фута
С 11-го 0100 UTC
Ветер 4 Узел от южный-юго-западный
Видимость: 10 км
Рассеянная облачность на высоте 2500 фута

TAF: KYNG 100538Z 1006/1106 35005KT P6SM OVC015 FM101700 27004KT P6SM OVC025 FM110100 21004KT P6SM BKN025

Метеонаблюдения и прогнозы для более 4000 аэропортов (сводки METAR и TAF).

Имеющиеся станции представлены на карте желтыми и красными точками.

Чтобы увидеть название станции, наведите на нее мышь.

Затем щелкните, чтобы увидеть метеонаблюдения и метеопрогнозы.

Управление картой: чтобы увеличить масштаб, щелкните зеленые кнопки с черным крестиком; чтобы уменьшить масштаб, щелкните зеленую кнопку с тире; для просмотра соседних карт щелкайте зеленые стрелки.


METAR-TAF: